CDT,Max TemperatureF,Mean TemperatureF,Min TemperatureF,Max Dew PointF,MeanDew PointF,Min DewpointF,Max Humidity, Mean Humidity, Min Humidity, Max Sea Level PressureIn, Mean Sea Level PressureIn, Min Sea Level PressureIn, Max VisibilityMiles, Mean VisibilityMiles, Min VisibilityMiles, Max Wind SpeedMPH, Mean Wind SpeedMPH, Max Gust SpeedMPH,PrecipitationIn, CloudCover, Events, WindDirDegrees
2012-9-1,80,60,41,54,46,39,100,63,28,30.23,30.17,30.07,10,10,10,13,2,18,0.00,0,,132
2012-9-2,80,66,51,63,55,46,88,63,36,30.07,29.93,29.83,10,10,4,16,4,22,0.00,1,Rain,154
2012-9-3,84,68,53,63,53,43,100,62,23,29.92,29.89,29.83,10,8,0,8,2,,0.00,1,Fog,256
2012-9-4,84,66,48,63,54,46,100,76,32,29.91,29.82,29.70,10,10,3,15,2,30,0.02,1,Rain-Thunderstorm,137
2012-9-5,73,62,51,55,50,45,100,71,38,29.85,29.81,29.74,10,10,10,13,3,22,0.00,3,Rain,255
2012-9-6,64,54,44,52,49,45,100,79,52,29.94,29.90,29.84,10,10,7,10,2,16,0.00,4,Rain,272
2012-9-7,60,52,44,50,47,43,100,84,59,30.00,29.97,29.93,10,9,2,14,3,21,0.00,5,Rain,293
2012-9-8,57,49,41,54,47,41,100,92,77,30.04,29.89,29.78,10,10,2,12,3,20,0.08,4,Rain,290
2012-9-9,66,52,37,54,44,37,100,81,46,30.18,30.12,30.05,10,7,0,7,2,,0.00,3,Fog,254
2012-9-10,77,60,42,48,47,41,100,61,34,30.05,29.88,29.74,10,10,10,18,5,26,0.00,0,,168
2012-9-11,75,67,59,57,52,39,77,59,45,29.85,29.73,29.66,10,10,10,14,7,25,0.00,0,,182
2012-9-12,69,61,53,41,33,27,58,40,21,30.14,30.01,29.87,10,10,10,20,7,29,0.00,0,,248
2012-9-13,64,52,39,39,34,30,81,51,28,30.33,30.25,30.14,10,10,10,17,5,26,0.00,1,,273
2012-9-14,64,46,28,45,36,28,100,71,37,30.37,30.33,30.28,10,10,0,8,1,,0.00,1,Fog,292
2012-9-15,75,54,32,48,41,30,100,66,29,30.28,30.10,29.91,10,10,10,12,3,17,0.00,0,,148
2012-9-16,69,53,37,50,42,37,100,66,33,29.99,29.91,29.85,10,10,10,10,3,21,0.00,2,,313
2012-9-17,53,44,33,39,34,28,87,63,41,30.01,29.99,29.95,10,10,10,9,3,17,0.00,4,Rain,329
2012-9-18,55,40,24,34,27,21,100,66,26,30.01,29.95,29.82,10,10,10,8,1,,0.00,1,,266
2012-9-19,60,53,46,52,41,32,100,74,54,29.81,29.62,29.52,10,9,1,17,9,31,0.10,7,Rain,235
2012-9-20,57,48,39,46,42,34,100,81,44,29.83,29.77,29.68,10,9,2,15,7,28,0.00,6,Rain,285
2012-9-21,53,43,33,45,38,32,100,89,51,29.83,29.78,29.71,10,6,0,16,4,23,0.08,7,Fog-Rain-Snow-Thunderstorm,276
2012-9-22,48,42,35,39,34,27,100,75,46,30.19,30.10,29.83,10,9,3,12,6,20,0.00,7,Rain,320
2012-9-23,53,40,26,32,29,27,100,69,38,30.25,30.18,30.02,10,10,10,12,3,17,0.00,0,,269
2012-9-24,66,52,33,39,33,28,93,51,30,30.01,29.77,29.65,10,10,10,18,8,26,0.00,1,,264
2012-9-25,53,40,26,39,32,27,100,79,44,30.00,29.93,29.87,10,10,10,12,1,,0.00,5,,298
2012-9-26,57,42,28,39,33,28,100,76,41,30.22,30.12,30.01,10,10,2,7,1,,0.00,4,,323
2012-9-27,64,44,24,37,32,25,100,70,32,30.27,30.21,30.16,10,10,10,8,1,,0.00,0,,236
2012-9-28,71,50,30,43,36,30,100,64,25,30.19,30.14,30.08,10,10,10,6,1,,0.00,0,,201
2012-9-29,73,52,30,45,38,30,100,66,29,30.16,30.10,30.05,10,10,10,5,0,,0.00,0,,70
2012-9-30,73,53,33,45,37,30,93,60,30,30.06,29.96,29.84,10,10,10,10,2,17,0.00,0,,153